Time;durP1;ratioP1;P1;durP2;ratioP2;P2;SDS_P1;SDS_P2;PMS_P1;PMS_P2;Temp;Humidity;BMP_temperature;BMP_pressure;BME280_temperature;BME280_humidity;BME280_pressure;Samples;Min_cycle;Max_cycle;Signal;HPM_P1;HPM_P2
2023/03/09 00:01:55;;;;;;;20.75;15.48;;;2.30;99.90;;;;;;4999063;28;20030;-43
2023/03/09 00:04:21;;;;;;;22.10;15.45;;;2.20;99.90;;;;;;4999272;28;20659;-44
2023/03/09 00:06:47;;;;;;;22.02;16.42;;;2.30;99.90;;;;;;4998562;28;20023;-44
2023/03/09 00:09:13;;;;;;;23.00;16.70;;;2.20;99.90;;;;;;4999861;28;20022;-43
2023/03/09 00:11:41;;;;;;;25.38;17.75;;;2.20;99.90;;;;;;5000450;28;20030;-43
2023/03/09 00:14:07;;;;;;;23.88;17.60;;;2.20;99.90;;;;;;4998695;28;20022;-43
2023/03/09 00:16:32;;;;;;;25.67;18.33;;;2.20;99.90;;;;;;4999576;28;20437;-42
2023/03/09 00:18:58;;;;;;;23.90;17.10;;;2.20;99.90;;;;;;4999109;28;20033;-44
2023/03/09 00:21:35;;;;;;;27.20;18.58;;;2.20;99.90;;;;;;4999355;28;20033;-43
2023/03/09 00:24:16;;;;;;;28.58;18.95;;;2.20;99.90;;;;;;4999741;28;20026;-43
2023/03/09 00:26:50;;;;;;;25.35;18.05;;;2.10;99.90;;;;;;5000224;28;20466;-43
2023/03/09 00:29:16;;;;;;;24.35;17.08;;;2.10;99.90;;;;;;4998812;28;20053;-43
2023/03/09 00:31:43;;;;;;;30.60;20.60;;;2.10;99.90;;;;;;5000002;28;20037;-43
2023/03/09 00:34:09;;;;;;;27.00;18.60;;;2.10;99.90;;;;;;4999025;28;20022;-42
2023/03/09 00:36:35;;;;;;;26.50;18.42;;;2.10;99.90;;;;;;5000264;28;20042;-42
2023/03/09 00:39:00;;;;;;;28.30;19.33;;;2.10;99.90;;;;;;4998782;28;20060;-42
2023/03/09 00:41:31;;;;;;;28.20;19.30;;;2.00;99.90;;;;;;4999032;28;20450;-43
2023/03/09 00:44:01;;;;;;;26.15;18.13;;;2.00;99.90;;;;;;4998885;28;20107;-43
2023/03/09 00:46:27;;;;;;;27.70;19.13;;;2.00;99.90;;;;;;4999009;28;20037;-43
2023/03/09 00:48:53;;;;;;;27.13;18.85;;;2.00;99.90;;;;;;4998291;28;20022;-43
2023/03/09 00:51:19;;;;;;;31.60;20.27;;;2.00;99.90;;;;;;4998505;28;20073;-42
2023/03/09 00:53:45;;;;;;;25.00;17.65;;;2.00;99.90;;;;;;4998904;28;20061;-43
2023/03/09 00:56:17;;;;;;;29.95;19.60;;;2.00;99.90;;;;;;4997968;28;20156;-42
2023/03/09 00:58:43;;;;;;;28.08;18.33;;;2.00;99.90;;;;;;4999840;28;20025;-44
2023/03/09 01:01:10;;;;;;;26.00;17.45;;;2.10;99.90;;;;;;5003708;28;20099;-43
2023/03/09 01:03:48;;;;;;;24.55;16.48;;;2.00;99.90;;;;;;5003076;28;20433;-43
2023/03/09 01:06:14;;;;;;;28.05;19.60;;;2.10;99.90;;;;;;5001167;28;20072;-43
2023/03/09 01:08:40;;;;;;;31.02;19.77;;;2.00;99.90;;;;;;5002818;28;20026;-43
2023/03/09 01:11:10;;;;;;;29.08;19.08;;;2.00;99.90;;;;;;5001524;28;20038;-43
2023/03/09 01:13:36;;;;;;;24.98;16.63;;;2.00;99.90;;;;;;5003186;28;20052;-44
2023/03/09 01:16:02;;;;;;;27.05;17.52;;;2.00;99.90;;;;;;5002785;28;20104;-43
2023/03/09 01:18:31;;;;;;;27.10;18.23;;;2.00;99.90;;;;;;5002269;28;20064;-43
2023/03/09 01:20:58;;;;;;;25.33;16.85;;;2.00;99.90;;;;;;5002552;28;20032;-42
2023/03/09 01:23:23;;;;;;;25.23;16.48;;;2.10;99.90;;;;;;5002218;28;20074;-42
2023/03/09 01:25:49;;;;;;;26.35;16.58;;;2.10;99.90;;;;;;5003146;28;20021;-44
2023/03/09 01:28:21;;;;;;;24.58;16.73;;;2.10;99.90;;;;;;5002341;28;20838;-43
2023/03/09 01:30:47;;;;;;;24.38;16.25;;;2.10;99.90;;;;;;5002431;28;20111;-42
2023/03/09 01:33:12;;;;;;;28.05;18.38;;;2.10;99.90;;;;;;5002931;28;20072;-43
2023/03/09 01:35:39;;;;;;;28.73;18.33;;;2.20;99.90;;;;;;5002916;28;20168;-43
2023/03/09 01:38:05;;;;;;;26.77;17.48;;;2.10;99.90;;;;;;5001675;28;20041;-44
2023/03/09 01:40:31;;;;;;;31.45;18.98;;;2.20;99.90;;;;;;5002902;28;20034;-43
2023/03/09 01:43:19;;;;;;;27.88;17.92;;;2.20;99.90;;;;;;5002396;28;20079;-42
2023/03/09 01:45:48;;;;;;;28.67;18.92;;;2.20;99.90;;;;;;5002012;28;20030;-42
2023/03/09 01:48:13;;;;;;;28.40;18.00;;;2.20;99.90;;;;;;5002459;28;20034;-43
2023/03/09 01:50:40;;;;;;;25.58;17.20;;;2.20;99.90;;;;;;5002359;28;20033;-42
2023/03/09 01:53:10;;;;;;;30.63;19.50;;;2.10;99.90;;;;;;5000297;28;20034;-43
2023/03/09 01:55:50;;;;;;;28.17;18.48;;;2.20;99.90;;;;;;5001276;28;20413;-42
2023/03/09 01:58:21;;;;;;;26.65;16.92;;;2.10;99.90;;;;;;4999484;28;20646;-44
2023/03/09 02:00:49;;;;;;;24.55;16.85;;;2.20;99.90;;;;;;5001563;28;20065;-43
2023/03/09 02:03:29;;;;;;;26.40;16.88;;;2.20;99.90;;;;;;5001647;28;20790;-44
2023/03/09 02:06:11;;;;;;;24.48;16.27;;;2.20;99.90;;;;;;5001520;28;20010;-42
2023/03/09 02:08:50;;;;;;;22.38;14.75;;;2.20;99.90;;;;;;5001126;28;20477;-43
2023/03/09 02:11:16;;;;;;;26.10;17.50;;;2.10;99.90;;;;;;5000862;28;20088;-43
2023/03/09 02:13:48;;;;;;;24.33;16.20;;;2.20;99.90;;;;;;5002056;28;20025;-43
2023/03/09 02:16:14;;;;;;;23.27;16.40;;;2.20;99.90;;;;;;5000934;28;20042;-43
2023/03/09 02:18:39;;;;;;;29.77;19.08;;;2.20;99.90;;;;;;5002372;28;20029;-43
2023/03/09 02:21:14;;;;;;;27.45;17.90;;;2.20;99.90;;;;;;4999470;28;20025;-43
2023/03/09 02:24:07;;;;;;;24.30;15.65;;;2.20;99.90;;;;;;5001940;28;20030;-43
2023/03/09 02:26:47;;;;;;;25.63;17.27;;;2.20;99.90;;;;;;5001984;28;20692;-44
2023/03/09 02:29:13;;;;;;;25.92;17.05;;;2.10;99.90;;;;;;5001262;28;20029;-43
2023/03/09 02:31:42;;;;;;;24.65;16.23;;;2.20;99.90;;;;;;5000955;28;20564;-42
2023/03/09 02:34:09;;;;;;;31.27;20.52;;;2.20;99.90;;;;;;5001000;28;20486;-43
2023/03/09 02:36:34;;;;;;;30.52;19.73;;;2.10;99.90;;;;;;5001265;28;20121;-44
2023/03/09 02:39:07;;;;;;;36.50;22.15;;;2.10;99.90;;;;;;5001658;28;20022;-44
2023/03/09 02:41:34;;;;;;;32.40;20.45;;;2.10;99.90;;;;;;5001335;28;20026;-43
2023/03/09 02:44:00;;;;;;;30.73;19.48;;;2.10;99.90;;;;;;5001459;28;20057;-43
2023/03/09 02:46:26;;;;;;;35.47;21.42;;;2.10;99.90;;;;;;5000927;28;20092;-42
2023/03/09 02:48:51;;;;;;;29.20;18.83;;;2.10;99.90;;;;;;5000445;28;20109;-43
2023/03/09 02:51:20;;;;;;;29.80;19.35;;;2.10;99.90;;;;;;5001178;28;20089;-43
2023/03/09 02:53:45;;;;;;;27.77;18.30;;;2.10;99.90;;;;;;5000859;28;20125;-44
2023/03/09 02:56:11;;;;;;;27.02;17.90;;;2.10;99.90;;;;;;4999598;28;20057;-42
2023/03/09 02:58:36;;;;;;;27.00;18.35;;;2.20;99.90;;;;;;5001129;28;20109;-45
2023/03/09 03:01:02;;;;;;;29.40;19.10;;;2.20;99.90;;;;;;5001347;28;20037;-44
2023/03/09 03:03:28;;;;;;;30.23;19.73;;;2.20;99.90;;;;;;4999315;28;20096;-43
2023/03/09 03:05:53;;;;;;;28.38;18.80;;;2.10;99.90;;;;;;5000653;28;20037;-43
2023/03/09 03:08:19;;;;;;;26.63;18.02;;;2.20;99.90;;;;;;4998938;28;20346;-44
2023/03/09 03:10:44;;;;;;;29.17;18.80;;;2.20;99.90;;;;;;4999685;28;20076;-43
2023/03/09 03:13:10;;;;;;;26.67;18.17;;;2.20;99.90;;;;;;4999833;28;20481;-43
2023/03/09 03:15:36;;;;;;;24.92;17.13;;;2.20;99.90;;;;;;5001199;28;20053;-42
2023/03/09 03:18:02;;;;;;;22.65;15.07;;;2.20;99.90;;;;;;4999123;28;20100;-42
2023/03/09 03:20:30;;;;;;;26.92;17.50;;;2.20;99.90;;;;;;5000381;28;20037;-42
2023/03/09 03:22:56;;;;;;;27.13;17.52;;;2.20;99.90;;;;;;4998630;28;20112;-43
2023/03/09 03:25:21;;;;;;;27.90;19.02;;;2.20;99.90;;;;;;5000582;28;20026;-42
2023/03/09 03:27:47;;;;;;;26.90;17.00;;;2.20;99.90;;;;;;5001343;28;20535;-42
2023/03/09 03:30:13;;;;;;;26.38;17.50;;;2.20;99.90;;;;;;4999220;28;20022;-43
2023/03/09 03:32:39;;;;;;;26.05;17.35;;;2.20;99.90;;;;;;5001030;28;20033;-44
2023/03/09 03:35:05;;;;;;;28.10;18.15;;;2.20;99.90;;;;;;4999520;28;20022;-42
2023/03/09 03:37:31;;;;;;;27.35;18.02;;;2.20;99.90;;;;;;5000445;28;20073;-43
2023/03/09 03:39:58;;;;;;;27.10;18.00;;;2.20;99.90;;;;;;5000557;28;20122;-44
2023/03/09 03:42:24;;;;;;;26.98;18.00;;;2.20;99.90;;;;;;4999871;28;20052;-44
2023/03/09 03:44:52;;;;;;;25.38;16.33;;;2.20;99.90;;;;;;4999441;28;20389;-44
2023/03/09 03:47:18;;;;;;;25.63;16.50;;;2.20;99.90;;;;;;4998606;28;20065;-42
2023/03/09 03:49:43;;;;;;;23.67;16.33;;;2.20;99.90;;;;;;4999934;28;20761;-41
2023/03/09 03:52:15;;;;;;;21.95;15.48;;;2.20;99.90;;;;;;4998925;28;20041;-43
2023/03/09 03:54:40;;;;;;;21.85;14.77;;;2.20;99.90;;;;;;5000537;28;20269;-42
2023/03/09 03:57:18;;;;;;;21.40;14.85;;;2.20;99.90;;;;;;4999044;28;20533;-43
2023/03/09 03:59:43;;;;;;;23.80;15.88;;;2.20;99.90;;;;;;4999708;28;20014;-42
2023/03/09 04:02:09;;;;;;;26.52;17.20;;;2.30;99.90;;;;;;5000069;28;20037;-43
2023/03/09 04:04:41;;;;;;;23.95;16.08;;;2.20;99.90;;;;;;4999654;28;20064;-43
2023/03/09 04:07:13;;;;;;;24.95;16.70;;;2.30;99.90;;;;;;4998873;28;20040;-42
2023/03/09 04:09:42;;;;;;;27.67;18.02;;;2.20;99.90;;;;;;5000018;28;20024;-42
2023/03/09 04:12:11;;;;;;;24.30;15.85;;;2.20;99.90;;;;;;4998487;28;20026;-43
2023/03/09 04:14:39;;;;;;;24.13;16.63;;;2.20;99.90;;;;;;4999023;28;20030;-43
2023/03/09 04:17:05;;;;;;;26.65;16.20;;;2.20;99.90;;;;;;4998649;28;20426;-43
2023/03/09 04:19:31;;;;;;;25.77;16.63;;;2.20;99.90;;;;;;4998638;28;20081;-43
2023/03/09 04:21:56;;;;;;;23.75;15.50;;;2.20;99.90;;;;;;4999599;28;20124;-42
2023/03/09 04:24:22;;;;;;;26.80;16.98;;;2.20;99.90;;;;;;4999635;28;20542;-42
2023/03/09 04:26:47;;;;;;;24.90;17.15;;;2.20;99.90;;;;;;4998604;28;20036;-43
2023/03/09 04:29:13;;;;;;;26.52;17.52;;;2.30;99.90;;;;;;4999066;28;20125;-43
2023/03/09 04:31:38;;;;;;;26.75;17.38;;;2.20;99.90;;;;;;5000583;28;20022;-43
2023/03/09 04:34:04;;;;;;;27.20;17.70;;;2.30;99.90;;;;;;4998371;28;20095;-44
2023/03/09 04:36:33;;;;;;;31.52;19.83;;;2.20;99.90;;;;;;4999449;28;20041;-42
2023/03/09 04:38:58;;;;;;;31.13;19.98;;;2.30;99.90;;;;;;4999692;28;20076;-44
2023/03/09 04:41:24;;;;;;;31.45;20.27;;;2.20;99.90;;;;;;4998042;28;20034;-43
2023/03/09 04:43:49;;;;;;;31.58;19.48;;;2.20;99.90;;;;;;4999719;28;20171;-43
2023/03/09 04:46:15;;;;;;;27.70;17.73;;;2.30;99.90;;;;;;4998897;28;20022;-44
2023/03/09 04:48:46;;;;;;;27.52;18.30;;;2.20;99.90;;;;;;4999489;28;20080;-43
2023/03/09 04:51:12;;;;;;;31.40;19.13;;;2.20;99.90;;;;;;4999101;28;20496;-44
2023/03/09 04:53:40;;;;;;;37.00;21.27;;;2.20;99.90;;;;;;5000294;28;20033;-44
2023/03/09 04:56:06;;;;;;;32.35;19.92;;;2.20;99.90;;;;;;4998001;28;20038;-43
2023/03/09 04:58:32;;;;;;;28.45;18.58;;;2.20;99.90;;;;;;4999838;28;20029;-44
2023/03/09 05:01:18;;;;;;;29.88;18.23;;;2.20;99.90;;;;;;4999697;28;20030;-42
2023/03/09 05:03:47;;;;;;;32.42;19.98;;;2.20;99.90;;;;;;4990618;28;20422;-42
2023/03/09 05:06:12;;;;;;;28.27;18.60;;;2.20;99.90;;;;;;4999364;28;20076;-43
2023/03/09 05:08:38;;;;;;;26.10;17.08;;;2.20;99.90;;;;;;4999083;28;20026;-43
2023/03/09 05:11:09;;;;;;;29.73;18.48;;;2.30;99.90;;;;;;4998770;28;20026;-43
2023/03/09 05:13:35;;;;;;;29.20;18.45;;;2.30;99.90;;;;;;5000221;28;20028;-43
2023/03/09 05:16:07;;;;;;;27.13;17.48;;;2.30;99.90;;;;;;4998265;28;20041;-43
2023/03/09 05:18:33;;;;;;;26.47;16.37;;;2.30;99.90;;;;;;4999479;28;20733;-42
2023/03/09 05:20:59;;;;;;;25.58;16.15;;;2.30;99.90;;;;;;4998556;28;20044;-44
2023/03/09 05:23:28;;;;;;;25.80;16.50;;;2.30;99.90;;;;;;4996635;28;20034;-42
2023/03/09 05:25:58;;;;;;;29.92;19.00;;;2.30;99.90;;;;;;4997686;28;20033;-44
2023/03/09 05:28:24;;;;;;;34.45;21.15;;;2.30;99.90;;;;;;4998248;28;20029;-45
2023/03/09 05:30:50;;;;;;;33.17;20.98;;;2.30;99.90;;;;;;4998325;28;20104;-44
2023/03/09 05:33:16;;;;;;;32.65;20.23;;;2.30;99.90;;;;;;4998038;28;20141;-42
2023/03/09 05:35:42;;;;;;;37.22;22.52;;;2.30;99.90;;;;;;4998211;28;20065;-43
2023/03/09 05:38:07;;;;;;;34.15;22.15;;;2.30;99.90;;;;;;4997440;28;20121;-43
2023/03/09 05:40:35;;;;;;;31.40;19.45;;;2.30;99.90;;;;;;4998508;28;20034;-43
2023/03/09 05:43:04;;;;;;;34.60;19.60;;;2.30;99.90;;;;;;4998380;28;20040;-43
2023/03/09 05:45:29;;;;;;;28.95;18.83;;;2.30;99.90;;;;;;5000572;28;20109;-42
2023/03/09 05:47:55;;;;;;;28.70;18.15;;;2.30;99.90;;;;;;5002636;28;20385;-44
2023/03/09 05:50:20;;;;;;;31.00;19.50;;;2.30;99.90;;;;;;5002360;28;20477;-43
2023/03/09 05:52:46;;;;;;;28.02;17.70;;;2.30;99.90;;;;;;5002045;28;20041;-44
2023/03/09 05:55:12;;;;;;;32.15;20.15;;;2.30;99.90;;;;;;5002314;28;20037;-43
2023/03/09 05:57:40;;;;;;;27.50;17.55;;;2.30;99.90;;;;;;5002688;28;20053;-43
2023/03/09 06:00:07;;;;;;;27.02;16.73;;;2.30;99.90;;;;;;5001734;28;20037;-43
2023/03/09 06:02:33;;;;;;;29.67;18.08;;;2.40;99.90;;;;;;5002791;28;20041;-44
2023/03/09 06:04:59;;;;;;;27.05;17.30;;;2.40;99.90;;;;;;5000773;28;20755;-43
2023/03/09 06:07:27;;;;;;;27.10;17.70;;;2.40;99.90;;;;;;5002583;28;20029;-44
2023/03/09 06:09:53;;;;;;;28.30;17.40;;;2.30;99.90;;;;;;5003029;28;20783;-44
2023/03/09 06:12:21;;;;;;;27.40;17.15;;;2.40;99.90;;;;;;5001335;28;20034;-42
2023/03/09 06:14:48;;;;;;;28.85;18.60;;;2.40;99.90;;;;;;5002121;28;20026;-46
2023/03/09 06:17:15;;;;;;;31.63;20.38;;;2.40;99.90;;;;;;5001599;28;20042;-42
2023/03/09 06:19:40;;;;;;;30.88;20.38;;;2.40;99.90;;;;;;5001799;28;20032;-42
2023/03/09 06:22:09;;;;;;;33.35;20.60;;;2.30;99.90;;;;;;5001317;28;20029;-43
2023/03/09 06:24:35;;;;;;;30.58;19.88;;;2.30;99.90;;;;;;5002007;28;20022;-43
2023/03/09 06:27:01;;;;;;;29.98;19.15;;;2.30;99.90;;;;;;5001117;28;20029;-43
2023/03/09 06:29:30;;;;;;;25.77;16.45;;;2.30;99.90;;;;;;5001435;28;20128;-43
2023/03/09 06:31:55;;;;;;;28.23;17.70;;;2.30;99.90;;;;;;5000789;28;20474;-43
2023/03/09 06:34:21;;;;;;;26.90;17.17;;;2.40;99.90;;;;;;4999472;28;20029;-43
2023/03/09 06:36:46;;;;;;;26.10;17.15;;;2.40;99.90;;;;;;5000015;28;20363;-43
2023/03/09 06:39:12;;;;;;;27.27;17.75;;;2.40;99.90;;;;;;5000413;28;20769;-43
2023/03/09 06:41:38;;;;;;;26.73;17.35;;;2.40;99.90;;;;;;4991357;28;20042;-42
2023/03/09 06:44:04;;;;;;;26.60;16.90;;;2.40;99.90;;;;;;4993284;28;20030;-43
2023/03/09 06:46:30;;;;;;;24.48;15.60;;;2.50;99.90;;;;;;4997538;28;20042;-43
2023/03/09 06:48:56;;;;;;;24.80;16.73;;;2.50;99.90;;;;;;4997450;28;20125;-42
2023/03/09 06:51:22;;;;;;;29.20;19.10;;;2.50;99.90;;;;;;4996660;28;20061;-44
2023/03/09 06:53:47;;;;;;;26.65;17.58;;;2.50;99.90;;;;;;4996281;28;20140;-43
2023/03/09 06:56:13;;;;;;;27.02;17.13;;;2.60;99.90;;;;;;4994684;28;20108;-42
2023/03/09 06:58:39;;;;;;;26.45;17.55;;;2.50;99.90;;;;;;4996515;28;20906;-43
2023/03/09 07:01:10;;;;;;;26.38;17.20;;;2.50;99.90;;;;;;4996169;28;20033;-43
2023/03/09 07:03:36;;;;;;;26.80;16.58;;;2.50;99.90;;;;;;4997697;28;20026;-41
2023/03/09 07:06:03;;;;;;;23.27;15.48;;;2.60;99.90;;;;;;4997415;28;20636;-43
2023/03/09 07:08:28;;;;;;;22.42;15.38;;;2.60;99.90;;;;;;4996604;28;20049;-43
2023/03/09 07:10:54;;;;;;;24.08;16.35;;;2.60;99.90;;;;;;4997766;28;20022;-42
2023/03/09 07:13:19;;;;;;;25.67;16.17;;;2.60;99.90;;;;;;4996381;28;20034;-43
2023/03/09 07:15:45;;;;;;;25.13;15.65;;;2.60;99.90;;;;;;4995213;28;20026;-42
2023/03/09 07:18:11;;;;;;;23.73;14.93;;;2.60;99.90;;;;;;4995810;28;20046;-43
2023/03/09 07:20:40;;;;;;;23.70;15.80;;;2.70;99.90;;;;;;4996993;28;20030;-43
2023/03/09 07:23:07;;;;;;;22.85;15.45;;;2.70;99.90;;;;;;4996682;28;20072;-43
2023/03/09 07:25:34;;;;;;;23.13;15.05;;;2.70;99.90;;;;;;4997669;28;20037;-43
2023/03/09 07:28:01;;;;;;;22.33;14.75;;;2.70;99.90;;;;;;4997445;28;20025;-43
2023/03/09 07:30:28;;;;;;;21.90;14.13;;;2.80;99.90;;;;;;4997356;28;20100;-43
2023/03/09 07:32:55;;;;;;;23.73;16.05;;;2.80;99.90;;;;;;4998499;28;20403;-43
2023/03/09 07:35:21;;;;;;;23.83;15.52;;;2.80;99.90;;;;;;4996856;28;20048;-43
2023/03/09 07:37:46;;;;;;;22.30;15.00;;;2.80;99.90;;;;;;4997214;28;21027;-43
2023/03/09 07:40:19;;;;;;;22.40;14.90;;;2.90;99.90;;;;;;4997177;28;20033;-44
2023/03/09 07:42:49;;;;;;;20.92;14.38;;;2.90;99.90;;;;;;4996628;28;20788;-43
2023/03/09 07:45:16;;;;;;;20.98;14.15;;;3.00;99.90;;;;;;4994256;28;20494;-44
2023/03/09 07:47:44;;;;;;;22.88;15.45;;;3.00;99.90;;;;;;4995891;28;20113;-43
2023/03/09 07:50:10;;;;;;;23.95;16.05;;;3.00;99.90;;;;;;4995821;28;20030;-43
2023/03/09 07:52:36;;;;;;;23.88;15.65;;;3.00;99.90;;;;;;4996247;28;20040;-43
2023/03/09 07:55:01;;;;;;;23.65;15.13;;;3.10;99.90;;;;;;4995817;28;20045;-43
2023/03/09 07:57:39;;;;;;;26.33;16.50;;;3.10;99.90;;;;;;4995866;28;20122;-43
2023/03/09 08:00:12;;;;;;;25.35;17.08;;;3.10;99.90;;;;;;4996643;28;20525;-43
2023/03/09 08:02:40;;;;;;;27.02;17.73;;;3.20;99.90;;;;;;4996830;28;20037;-42
2023/03/09 08:05:08;;;;;;;29.35;18.85;;;3.20;99.90;;;;;;4995573;28;20116;-43
2023/03/09 08:07:34;;;;;;;29.65;19.42;;;3.20;99.90;;;;;;4995773;28;20453;-45
2023/03/09 08:09:59;;;;;;;26.65;18.70;;;3.20;99.90;;;;;;4996309;28;20561;-43
2023/03/09 08:12:25;;;;;;;26.10;17.23;;;3.20;99.90;;;;;;4996405;28;20118;-43
2023/03/09 08:14:50;;;;;;;28.58;17.88;;;3.20;99.90;;;;;;4996648;28;20037;-43
2023/03/09 08:17:19;;;;;;;29.02;17.60;;;3.20;99.90;;;;;;4996345;28;20136;-41
2023/03/09 08:19:44;;;;;;;24.98;16.55;;;3.30;99.90;;;;;;4996167;28;20148;-43
2023/03/09 08:22:20;;;;;;;25.27;16.85;;;3.30;99.90;;;;;;4996412;28;20421;-43
2023/03/09 08:24:49;;;;;;;26.25;16.58;;;3.40;99.90;;;;;;4995844;28;20018;-42
2023/03/09 08:27:14;;;;;;;32.30;19.70;;;3.40;99.90;;;;;;4995538;28;20041;-42
2023/03/09 08:29:40;;;;;;;27.95;18.55;;;3.50;99.90;;;;;;4996748;28;20879;-45
2023/03/09 08:32:09;;;;;;;28.25;19.13;;;3.50;99.90;;;;;;4997409;28;20454;-43
2023/03/09 08:34:35;;;;;;;28.10;17.88;;;3.50;99.90;;;;;;4996314;28;20061;-43
2023/03/09 08:37:04;;;;;;;30.70;19.77;;;3.60;99.90;;;;;;4997159;28;20856;-43
2023/03/09 08:39:30;;;;;;;27.52;18.27;;;3.60;99.90;;;;;;4996590;28;20022;-43
2023/03/09 08:41:56;;;;;;;32.08;20.17;;;3.70;99.90;;;;;;4997885;28;20096;-42
2023/03/09 08:44:21;;;;;;;30.40;20.20;;;3.80;99.90;;;;;;4996506;28;20022;-43
2023/03/09 08:46:47;;;;;;;32.97;21.00;;;3.80;99.90;;;;;;4996357;28;20033;-45
2023/03/09 08:49:18;;;;;;;31.33;19.33;;;3.80;99.90;;;;;;4995178;28;20025;-43
2023/03/09 08:51:44;;;;;;;32.13;20.85;;;3.80;99.90;;;;;;4994849;28;20634;-43
2023/03/09 08:54:10;;;;;;;29.27;20.45;;;3.80;99.90;;;;;;4994639;28;20025;-43
2023/03/09 08:56:35;;;;;;;27.75;18.38;;;3.90;99.90;;;;;;4995148;28;20058;-43
2023/03/09 08:59:01;;;;;;;30.02;19.75;;;3.90;99.90;;;;;;4995352;28;20029;-43
2023/03/09 09:01:28;;;;;;;30.77;19.35;;;3.90;99.90;;;;;;4996253;28;20614;-42
2023/03/09 09:03:53;;;;;;;32.00;21.40;;;4.00;99.90;;;;;;4996266;28;20030;-43
2023/03/09 09:06:19;;;;;;;29.27;19.00;;;4.00;99.90;;;;;;4996106;28;20032;-42
2023/03/09 09:08:47;;;;;;;28.95;20.05;;;4.00;99.90;;;;;;4996158;28;20037;-42
2023/03/09 09:11:15;;;;;;;28.00;18.02;;;4.00;99.90;;;;;;4994805;28;20021;-43
2023/03/09 09:13:41;;;;;;;28.58;18.95;;;4.00;99.90;;;;;;4995872;28;20541;-43
2023/03/09 09:16:11;;;;;;;29.05;20.17;;;4.00;99.90;;;;;;4994399;28;20030;-43
2023/03/09 09:18:38;;;;;;;28.17;18.13;;;4.00;99.90;;;;;;4996088;28;20049;-43
2023/03/09 09:21:08;;;;;;;26.33;18.23;;;4.10;99.90;;;;;;4997625;28;20161;-44
2023/03/09 09:23:35;;;;;;;27.95;18.83;;;4.10;99.90;;;;;;4997131;28;20861;-44
2023/03/09 09:26:01;;;;;;;30.38;20.20;;;4.20;99.90;;;;;;4999488;28;20823;-42
2023/03/09 09:28:27;;;;;;;28.80;18.67;;;4.20;99.90;;;;;;4999996;28;20030;-43
2023/03/09 09:30:56;;;;;;;29.58;19.00;;;4.20;99.90;;;;;;4999592;28;20033;-43
2023/03/09 09:33:25;;;;;;;27.70;18.58;;;4.30;99.90;;;;;;5000390;28;20029;-43
2023/03/09 09:36:04;;;;;;;31.92;20.10;;;4.30;99.90;;;;;;4999244;28;20629;-42
2023/03/09 09:38:31;;;;;;;31.52;20.55;;;4.20;99.90;;;;;;4999632;28;20473;-43
2023/03/09 09:40:59;;;;;;;29.92;19.70;;;4.30;99.90;;;;;;5000740;28;20022;-43
2023/03/09 09:43:31;;;;;;;31.17;19.85;;;4.20;99.90;;;;;;4999090;28;20577;-44
2023/03/09 09:46:02;;;;;;;31.20;19.98;;;4.20;99.90;;;;;;4999787;28;20354;-43
2023/03/09 09:48:29;;;;;;;32.40;20.55;;;4.20;99.90;;;;;;4999270;28;20608;-43
2023/03/09 09:51:26;;;;;;;31.73;19.88;;;4.20;99.90;;;;;;4998803;28;20418;-44
2023/03/09 09:54:19;;;;;;;33.17;20.52;;;4.30;99.90;;;;;;4999475;28;20038;-43
2023/03/09 09:56:51;;;;;;;30.25;20.05;;;4.30;99.90;;;;;;4998778;28;20232;-42
2023/03/09 09:59:41;;;;;;;30.42;19.55;;;4.40;99.90;;;;;;4998687;28;20052;-42
2023/03/09 10:02:34;;;;;;;29.65;18.88;;;4.40;99.90;;;;;;4998005;28;20088;-43
2023/03/09 10:05:19;;;;;;;32.80;20.52;;;4.40;99.90;;;;;;4995655;28;20049;-43
2023/03/09 10:07:45;;;;;;;30.40;18.77;;;4.50;99.90;;;;;;4998516;28;20045;-44
2023/03/09 10:10:21;;;;;;;33.17;20.27;;;4.50;99.90;;;;;;4998603;28;20034;-42
2023/03/09 10:12:47;;;;;;;30.42;19.02;;;4.50;99.90;;;;;;4996407;28;20041;-43
2023/03/09 10:15:28;;;;;;;33.30;19.63;;;4.60;99.90;;;;;;4998162;28;20202;-43
2023/03/09 10:18:10;;;;;;;32.85;20.50;;;4.60;99.90;;;;;;4998722;28;20587;-43
2023/03/09 10:20:38;;;;;;;30.58;19.27;;;4.60;99.90;;;;;;4998550;28;20112;-42
2023/03/09 10:23:19;;;;;;;28.77;17.75;;;4.60;99.90;;;;;;4998251;28;20025;-44
2023/03/09 10:25:47;;;;;;;28.73;17.10;;;4.60;99.90;;;;;;4997387;28;20034;-45
2023/03/09 10:28:18;;;;;;;30.15;19.38;;;4.70;99.90;;;;;;4998032;28;20048;-43
2023/03/09 10:31:04;;;;;;;31.88;20.90;;;4.70;99.90;;;;;;4998642;28;20025;-44
2023/03/09 10:34:01;;;;;;;35.28;21.35;;;4.80;99.90;;;;;;4997991;28;20054;-42
2023/03/09 10:36:32;;;;;;;34.10;21.88;;;4.80;99.90;;;;;;4996614;28;20604;-43
2023/03/09 10:39:11;;;;;;;32.85;20.75;;;4.70;99.90;;;;;;4997946;28;20034;-43
2023/03/09 10:41:37;;;;;;;30.13;19.33;;;4.70;99.90;;;;;;4997769;28;20026;-44
2023/03/09 10:44:06;;;;;;;28.73;18.42;;;4.70;99.90;;;;;;4997898;28;20018;-43
2023/03/09 10:46:56;;;;;;;29.73;18.58;;;4.80;99.90;;;;;;4997654;28;20025;-44
2023/03/09 10:49:22;;;;;;;30.00;18.00;;;4.80;99.90;;;;;;4998574;28;20052;-43
2023/03/09 10:52:05;;;;;;;28.30;16.85;;;4.90;99.90;;;;;;4998247;28;20458;-43
2023/03/09 10:54:39;;;;;;;27.88;17.15;;;5.00;99.90;;;;;;4997342;28;20084;-44
2023/03/09 10:57:22;;;;;;;23.77;16.10;;;5.00;99.90;;;;;;4997759;28;20501;-42
2023/03/09 11:00:06;;;;;;;26.42;17.38;;;5.00;99.90;;;;;;4998122;28;20037;-43
2023/03/09 11:02:37;;;;;;;28.63;18.60;;;5.10;99.90;;;;;;4998406;28;20034;-43
2023/03/09 11:05:19;;;;;;;32.60;20.23;;;5.10;99.90;;;;;;4997042;28;20036;-44
2023/03/09 11:07:53;;;;;;;30.85;19.55;;;5.10;99.90;;;;;;4996247;28;20649;-43
2023/03/09 11:10:31;;;;;;;31.85;19.70;;;5.10;99.90;;;;;;4996688;28;20048;-43
2023/03/09 11:12:58;;;;;;;27.98;18.85;;;5.20;99.90;;;;;;4996765;28;20820;-43
2023/03/09 11:15:33;;;;;;;28.70;19.38;;;5.30;99.90;;;;;;4996391;28;20396;-44
2023/03/09 11:18:02;;;;;;;34.67;21.42;;;5.20;99.90;;;;;;4996929;28;20785;-43
2023/03/09 11:20:29;;;;;;;33.80;22.27;;;5.20;99.90;;;;;;4997423;28;20730;-44
2023/03/09 11:23:03;;;;;;;30.33;20.23;;;5.10;99.90;;;;;;4997564;28;20044;-43
2023/03/09 11:25:39;;;;;;;29.35;18.65;;;5.10;99.90;;;;;;4997402;28;20041;-43
2023/03/09 11:28:26;;;;;;;28.55;18.98;;;5.10;99.90;;;;;;4997790;28;20033;-43
2023/03/09 11:30:55;;;;;;;26.92;17.35;;;5.10;99.90;;;;;;4997589;28;20037;-43
2023/03/09 11:33:22;;;;;;;27.17;17.05;;;5.20;99.90;;;;;;4997640;28;20041;-43
2023/03/09 11:35:52;;;;;;;26.05;16.92;;;5.20;99.90;;;;;;4996196;28;20040;-43
2023/03/09 11:38:19;;;;;;;25.17;16.52;;;5.30;99.90;;;;;;4997090;28;20049;-43
2023/03/09 11:40:47;;;;;;;26.63;17.58;;;5.30;99.90;;;;;;4996815;28;20148;-44
2023/03/09 11:43:27;;;;;;;26.90;17.45;;;5.40;99.90;;;;;;4996057;28;20030;-43
2023/03/09 11:46:00;;;;;;;27.77;17.95;;;5.40;99.90;;;;;;4994819;28;20562;-42
2023/03/09 11:48:34;;;;;;;27.63;18.33;;;5.40;99.90;;;;;;4996168;28;20026;-43
2023/03/09 11:51:11;;;;;;;27.15;17.58;;;5.40;99.90;;;;;;4994700;28;20027;-43
2023/03/09 11:53:51;;;;;;;28.75;18.23;;;5.40;99.90;;;;;;4995151;28;20088;-43
2023/03/09 11:56:29;;;;;;;27.80;17.77;;;5.40;99.90;;;;;;4996965;28;20443;-44
2023/03/09 11:59:33;;;;;;;33.40;19.95;;;5.40;99.90;;;;;;4994438;28;20100;-43
2023/03/09 12:02:37;;;;;;;33.50;20.83;;;5.40;99.90;;;;;;4996869;28;20041;-43
2023/03/09 12:05:08;;;;;;;36.20;22.38;;;5.30;99.90;;;;;;4991537;28;20037;-43
2023/03/09 12:07:40;;;;;;;31.45;19.73;;;5.20;99.90;;;;;;4997020;28;20132;-42
2023/03/09 12:10:27;;;;;;;30.55;19.70;;;5.20;99.90;;;;;;4996522;28;20084;-43
2023/03/09 12:13:08;;;;;;;29.92;18.98;;;5.20;99.90;;;;;;4997423;28;20030;-44
2023/03/09 12:15:49;;;;;;;28.65;18.27;;;5.20;99.90;;;;;;4996452;28;20032;-42
2023/03/09 12:18:24;;;;;;;28.35;17.92;;;5.20;99.90;;;;;;4993683;28;20140;-42
2023/03/09 12:21:10;;;;;;;27.40;17.92;;;5.30;99.90;;;;;;4995659;28;20026;-43
2023/03/09 12:23:35;;;;;;;26.30;17.17;;;5.20;99.90;;;;;;4994151;28;20137;-44
2023/03/09 12:26:30;;;;;;;31.33;19.13;;;5.30;99.90;;;;;;4995351;28;20038;-42
2023/03/09 12:29:25;;;;;;;28.30;17.83;;;5.30;99.90;;;;;;4997094;28;20041;-42
2023/03/09 12:32:25;;;;;;;31.08;18.75;;;5.20;99.90;;;;;;4991470;28;20034;-42
2023/03/09 12:34:56;;;;;;;32.08;18.83;;;5.20;99.90;;;;;;4997646;28;20504;-42
2023/03/09 12:37:45;;;;;;;29.50;18.85;;;5.10;99.90;;;;;;4997085;28;20093;-42
2023/03/09 12:40:16;;;;;;;34.80;20.80;;;5.10;99.90;;;;;;4946021;28;20032;-43
2023/03/09 12:42:47;;;;;;;34.35;20.35;;;5.00;99.90;;;;;;4996392;28;20477;-44
2023/03/09 12:45:14;;;;;;;37.10;22.75;;;5.00;99.90;;;;;;4995092;28;20025;-43
2023/03/09 12:48:20;;;;;;;34.03;21.10;;;4.90;99.90;;;;;;4995910;28;20077;-44
2023/03/09 12:50:46;;;;;;;33.25;19.65;;;4.90;99.90;;;;;;4995415;28;20766;-43